Sylmar, CA (91342)

10:42 PM PDT on April 25, 2017 (GMT -0700)
Sylmar | | Change Station
Active Advisory: Wind Advisory Active Notice: Public Information Statement

Elev 1340 ft 34.32 °N, 118.46 °W | Updated 35 seconds ago

Partly Cloudy
Partly Cloudy
63.0 °F
Feels Like 63.0 °F
N
9.2
Wind Variable Wind from NNW
Gusts 9.2 mph

Today
High -- | Low -- °F
--% Chance of Precip.
Yesterday
High -- | Low -- °F
Precip. -- in
Pressure 29.92 in
Visibility 10.0 miles
Clouds Mostly Cloudy 20000 ft
Dew Point 34 °F
Humidity 34%
Rainfall 0.00 in
Snow Depth Not available.
6:10 AM 7:33 PM
Waning Crescent, 0% visible
METAR KWHP 260255Z 30012G28KT 10SM BKN200 20/01 A2992
Pressure 29.92 in
Visibility 10.0 miles
Clouds Mostly Cloudy 20000 ft
Dew Point 34 °F
Humidity 34%
Rainfall 0.00 in
Snow Depth Not available.
6:10 AM 7:33 PM
Waning Crescent, 0% visible
METAR KWHP 260255Z 30012G28KT 10SM BKN200 20/01 A2992

Get Your Daily Forecast Email!

Thanks for signing up!

Be on the lookout for a verification email in your inbox.

You'll start receiving severe weather alerts in your inbox..

×

10-Day Weather Forecast

Almanac

Astronomy

Apr. 25, 2017 Rise Set
Actual Time
Civil Twilight
Nautical Twilight
Astronomical Twilight
Moon
Length of Visible Light
Length of Day
Tomorrow will be .
, % of the Moon is Illuminated

Today's Extremes

State Highs State Lows

Community

WunderPhotos

WunderBlog® & News

Nearby

Air Quality

  Air Quality AQ Index Pollutant
Not available.

Snow Depth

Station Depth Elevation

Earthquake Activity

City Distance Mag. Time & Date
Minimum magnitude displayed is 2.5.

Coastal Water Temperatures

Place Temperature

Stations

Nearby Weather Stations

Station Location Temp. Windchill Dew Point Humidity Wind Precip. Elev Updated Type
                   

Watches & Warnings

Wind Advisory
Issued: 8:38 PM PDT Apr. 25, 2017 – National Weather Service

... Wind Advisory remains in effect until 9 am PDT Thursday...

* winds and timing... areas of northwest to north winds 20 to 30
mph with gusts 45 to 50 mph will continue through at least mid
morning Thursday. Isolated gusts to 60 mph are possible in
favored locations. Winds will be strongest through the
Interstate 5 corridor.

* Impacts... .gusty winds will make driving difficult, especially
for drivers of high profile vehicles. Major roads that will be
affected include Interstate 5 and Highway 14.

Precautionary/preparedness actions...

When driving, use extra caution. Be prepared for sudden gusty
cross winds.